Time;durP1;ratioP1;P1;durP2;ratioP2;P2;SDS_P1;SDS_P2;PMS_P1;PMS_P2;Temp;Humidity;BMP_temperature;BMP_pressure;BME280_temperature;BME280_humidity;BME280_pressure;Samples;Min_cycle;Max_cycle;Signal;HPM_P1;HPM_P2
2023/10/21 00:00:15;;;;;;;4.30;3.53;;;;;;;2.47;73.09;96785.09;6274860;28;20052;-67
2023/10/21 00:03:16;;;;;;;3.95;2.95;;;;;;;2.74;72.85;96802.38;6292574;28;20625;-66
2023/10/21 00:06:20;;;;;;;4.03;2.90;;;;;;;2.88;72.22;96789.75;6293593;28;20044;-66
2023/10/21 00:09:22;;;;;;;4.22;3.47;;;;;;;2.84;72.47;96782.97;6293365;28;20044;-67
2023/10/21 00:12:28;;;;;;;4.40;3.65;;;;;;;2.78;72.57;96778.84;6293337;28;20052;-67
2023/10/21 00:15:34;;;;;;;4.68;3.30;;;;;;;2.80;72.70;96787.44;6293355;28;20044;-67
2023/10/21 00:18:36;;;;;;;6.50;4.40;;;;;;;2.80;72.65;96792.66;6293034;28;20056;-67
2023/10/21 00:21:39;;;;;;;5.53;4.05;;;;;;;2.83;72.70;96786.47;6293008;28;20526;-67
2023/10/21 00:24:41;;;;;;;5.82;3.67;;;;;;;2.86;72.52;96781.16;6274386;28;20059;-67
2023/10/21 00:27:45;;;;;;;4.45;3.75;;;;;;;3.06;71.95;96793.47;6294023;28;20416;-66
2023/10/21 00:30:51;;;;;;;4.82;2.85;;;;;;;3.18;70.86;96786.97;6297719;28;20032;-67
2023/10/21 00:33:54;;;;;;;4.35;3.72;;;;;;;2.99;70.29;96790.22;6297412;28;20086;-67
2023/10/21 00:36:58;;;;;;;5.80;3.28;;;;;;;2.78;70.73;96786.66;6296985;28;20048;-67
2023/10/21 00:39:59;;;;;;;3.40;3.10;;;;;;;2.70;70.58;96776.50;6296617;28;20056;-67
2023/10/21 00:43:01;;;;;;;3.28;2.90;;;;;;;2.60;70.71;96782.91;6296311;28;20051;-67
2023/10/21 00:46:09;;;;;;;2.47;2.28;;;;;;;2.52;71.42;96786.69;6297512;28;20048;-66
2023/10/21 00:49:12;;;;;;;2.60;2.30;;;;;;;2.40;72.05;96785.34;6296532;28;20075;-68
2023/10/21 00:52:13;;;;;;;3.22;2.92;;;;;;;2.43;71.86;96782.66;6279077;28;20044;-67
2023/10/21 00:55:18;;;;;;;3.65;2.90;;;;;;;2.35;72.83;96784.66;6297051;28;20438;-67
2023/10/21 00:58:25;;;;;;;2.25;1.80;;;;;;;2.41;72.66;96781.88;6278635;28;20554;-67
2023/10/21 01:01:27;;;;;;;2.95;2.60;;;;;;;2.31;72.64;96778.72;6296500;28;20052;-67
2023/10/21 01:04:30;;;;;;;3.22;2.35;;;;;;;2.28;73.06;96783.19;6296133;28;20531;-68
2023/10/21 01:07:35;;;;;;;3.33;2.85;;;;;;;2.34;72.69;96762.19;6277896;28;20432;-66
2023/10/21 01:10:40;;;;;;;2.90;2.38;;;;;;;2.38;73.10;96774.19;6297531;28;20040;-67
2023/10/21 01:13:45;;;;;;;2.43;1.90;;;;;;;2.37;73.37;96762.09;6296240;28;20048;-68
2023/10/21 01:16:46;;;;;;;3.38;2.65;;;;;;;2.42;73.17;96765.38;6296053;28;20488;-67
2023/10/21 01:19:50;;;;;;;4.18;2.92;;;;;;;2.36;73.48;96752.63;6296338;28;20056;-67
2023/10/21 01:22:56;;;;;;;4.07;2.50;;;;;;;2.37;73.81;96757.75;6296814;28;20045;-67
2023/10/21 01:26:00;;;;;;;2.95;2.38;;;;;;;2.31;73.79;96757.97;6278432;28;20430;-67
2023/10/21 01:29:09;;;;;;;2.65;2.15;;;;;;;2.45;73.98;96765.28;6278558;28;20518;-67
2023/10/21 01:32:17;;;;;;;3.42;2.55;;;;;;;2.46;73.79;96760.03;6296201;28;20060;-67
2023/10/21 01:35:19;;;;;;;3.03;2.58;;;;;;;2.45;73.87;96749.69;6295458;28;20044;-67
2023/10/21 01:38:26;;;;;;;3.33;2.70;;;;;;;2.45;74.10;96740.16;6296198;28;20044;-67
2023/10/21 01:41:33;;;;;;;2.47;2.28;;;;;;;2.64;73.97;96747.31;6294124;28;20503;-67
2023/10/21 01:44:40;;;;;;;4.00;2.80;;;;;;;2.70;73.42;96734.94;6296002;28;20044;-67
2023/10/21 01:47:42;;;;;;;4.00;2.20;;;;;;;2.65;73.51;96736.84;6295063;28;20431;-67
2023/10/21 01:50:48;;;;;;;3.05;2.15;;;;;;;2.68;73.68;96725.50;6295897;28;20163;-67
2023/10/21 01:53:50;;;;;;;5.47;2.72;;;;;;;2.67;73.94;96735.06;6294888;28;20048;-67
2023/10/21 01:56:54;;;;;;;2.97;2.22;;;;;;;2.75;73.87;96741.75;6295263;28;20055;-68
2023/10/21 01:59:59;;;;;;;3.35;2.50;;;;;;;2.78;73.82;96736.44;6295764;28;20539;-67
2023/10/21 02:03:00;;;;;;;4.65;2.70;;;;;;;2.87;73.60;96736.09;6294581;28;20052;-67
2023/10/21 02:06:09;;;;;;;3.95;2.88;;;;;;;2.85;73.85;96737.88;6260759;28;20463;-67
2023/10/21 02:09:10;;;;;;;4.45;3.50;;;;;;;2.92;73.85;96734.19;6294758;28;20044;-68
2023/10/21 02:12:14;;;;;;;4.90;2.78;;;;;;;2.99;73.77;96730.44;6295436;28;20125;-68
2023/10/21 02:15:15;;;;;;;;;;;;;;;3.03;73.67;96732.03;6295202;28;20056;-67
2023/10/21 02:18:22;;;;;;;4.95;2.65;;;;;;;2.91;73.85;96728.09;6293753;28;19916;-67
2023/10/21 02:21:26;;;;;;;3.90;3.33;;;;;;;2.87;74.20;96720.50;6294482;28;20423;-68
2023/10/21 02:24:36;;;;;;;5.55;3.42;;;;;;;2.86;74.31;96723.97;6295085;28;20044;-68
2023/10/21 02:27:45;;;;;;;5.25;3.60;;;;;;;2.82;74.56;96732.81;6294467;28;20082;-67
2023/10/21 02:30:47;;;;;;;4.43;3.28;;;;;;;2.96;74.24;96720.16;6277145;28;20044;-68
2023/10/21 02:33:52;;;;;;;4.13;3.30;;;;;;;2.84;74.79;96733.59;6294861;28;20569;-67
2023/10/21 02:36:56;;;;;;;5.10;3.20;;;;;;;2.80;74.99;96726.81;6294605;28;20044;-68
2023/10/21 02:40:03;;;;;;;5.45;3.03;;;;;;;2.81;75.33;96726.75;6294653;28;20044;-67
2023/10/21 02:43:10;;;;;;;4.00;3.20;;;;;;;2.70;75.65;96737.53;6293797;28;20044;-67
2023/10/21 02:46:14;;;;;;;5.13;3.10;;;;;;;2.79;75.28;96733.75;6276962;28;20053;-67
2023/10/21 02:49:16;;;;;;;3.55;2.78;;;;;;;2.74;75.56;96724.44;6293794;28;20470;-68
2023/10/21 02:52:18;;;;;;;6.25;3.80;;;;;;;2.80;75.60;96729.41;6275738;28;20194;-67
2023/10/21 02:55:19;;;;;;;8.07;4.28;;;;;;;2.76;75.90;96722.66;6293755;28;20055;-67
2023/10/21 02:58:23;;;;;;;9.85;5.05;;;;;;;2.69;76.57;96727.22;6294270;28;20492;-67
2023/10/21 03:01:27;;;;;;;6.50;3.67;;;;;;;2.79;76.43;96728.56;6293943;28;20044;-68
2023/10/21 03:04:28;;;;;;;6.20;4.30;;;;;;;2.86;76.56;96730.06;6276327;28;20047;-66
2023/10/21 03:07:33;;;;;;;7.35;4.32;;;;;;;2.81;76.68;96725.94;6294362;28;20048;-67
2023/10/21 03:10:37;;;;;;;8.45;4.78;;;;;;;2.90;76.60;96731.63;6294480;28;20040;-67
2023/10/21 03:13:40;;;;;;;4.97;3.85;;;;;;;2.85;76.81;96724.91;6259473;28;20052;-67
2023/10/21 03:16:44;;;;;;;4.03;3.10;;;;;;;2.94;76.91;96716.75;6294020;28;20036;-68
2023/10/21 03:20:07;;;;;;;8.85;5.00;;;;;;;2.98;77.16;96720.09;6293962;28;20083;-66
2023/10/21 03:23:12;;;;;;;6.80;4.30;;;;;;;3.00;77.32;96715.69;6259093;28;20641;-67
2023/10/21 03:26:13;;;;;;;5.75;4.30;;;;;;;3.07;77.12;96707.59;6293548;28;20057;-69
2023/10/21 03:29:17;;;;;;;8.65;5.50;;;;;;;3.18;77.14;96708.97;6293314;28;20051;-68
2023/10/21 03:32:23;;;;;;;6.78;5.07;;;;;;;3.22;76.63;96705.31;6293506;28;20044;-67
2023/10/21 03:35:29;;;;;;;8.15;5.65;;;;;;;3.18;76.73;96701.16;6293902;28;20049;-66
2023/10/21 03:38:34;;;;;;;9.60;5.35;;;;;;;3.25;76.65;96710.41;6292842;28;20041;-67
2023/10/21 03:41:36;;;;;;;8.70;5.32;;;;;;;3.28;76.63;96705.09;6292880;28;20133;-67
2023/10/21 03:44:39;;;;;;;7.82;5.00;;;;;;;3.07;77.17;96692.00;6293735;28;20490;-66
2023/10/21 03:47:48;;;;;;;8.75;5.95;;;;;;;3.14;77.48;96703.88;6294184;28;20048;-67
2023/10/21 03:51:01;;;;;;;7.20;5.15;;;;;;;3.10;77.37;96694.47;6293815;28;20044;-68
2023/10/21 03:54:02;;;;;;;7.95;5.35;;;;;;;3.15;77.48;96684.75;6292716;28;20498;-68
2023/10/21 03:57:04;;;;;;;9.23;5.30;;;;;;;3.13;77.86;96690.94;6293085;28;20056;-67
2023/10/21 04:00:08;;;;;;;7.85;4.88;;;;;;;3.25;77.81;96689.59;6293547;28;20044;-67
2023/10/21 04:03:12;;;;;;;9.40;6.55;;;;;;;3.27;78.07;96687.78;6294633;28;20036;-67
2023/10/21 04:06:21;;;;;;;9.95;6.45;;;;;;;3.38;77.93;96686.47;6298028;28;20048;-68
2023/10/21 04:09:23;;;;;;;10.70;6.97;;;;;;;3.33;78.59;96679.75;6297614;28;20051;-67
2023/10/21 04:12:29;;;;;;;9.45;5.43;;;;;;;3.43;78.39;96683.69;6298306;28;20435;-67
2023/10/21 04:15:33;;;;;;;7.05;5.32;;;;;;;3.53;78.34;96682.41;6279789;28;20045;-68
2023/10/21 04:18:37;;;;;;;13.43;9.18;;;;;;;3.59;77.95;96669.19;6297092;28;20054;-68
2023/10/21 04:21:41;;;;;;;7.03;5.45;;;;;;;3.73;78.22;96678.16;6297377;28;20431;-68
2023/10/21 04:24:48;;;;;;;8.68;5.28;;;;;;;3.81;77.94;96676.09;6297119;28;20044;-68
2023/10/21 04:27:55;;;;;;;9.18;6.25;;;;;;;3.79;77.94;96670.97;6297876;28;20141;-68
2023/10/21 04:30:59;;;;;;;8.57;6.45;;;;;;;3.83;78.25;96674.28;6279814;28;20511;-68
2023/10/21 04:34:03;;;;;;;7.15;5.70;;;;;;;3.92;77.82;96668.69;6296998;28;20052;-68
2023/10/21 04:37:09;;;;;;;5.07;3.72;;;;;;;3.99;78.05;96664.06;6296920;28;20053;-67
2023/10/21 04:40:11;;;;;;;6.82;4.32;;;;;;;4.08;77.46;96665.44;6297916;28;20051;-68
2023/10/21 04:43:17;;;;;;;7.07;5.15;;;;;;;4.10;77.45;96656.63;6296593;28;20079;-67
2023/10/21 04:46:19;;;;;;;7.63;5.15;;;;;;;4.05;77.84;96656.00;6279110;28;20147;-68
2023/10/21 04:49:20;;;;;;;5.70;4.40;;;;;;;4.01;78.14;96649.22;6296522;28;20047;-67
2023/10/21 04:52:27;;;;;;;7.10;4.93;;;;;;;4.00;78.70;96642.34;6297097;28;20040;-68
2023/10/21 04:55:28;;;;;;;6.55;4.57;;;;;;;4.05;78.50;96645.59;6296107;28;20419;-68
2023/10/21 04:58:30;;;;;;;6.13;4.32;;;;;;;3.93;78.64;96633.09;6296302;28;20045;-68
2023/10/21 05:01:33;;;;;;;5.97;3.58;;;;;;;4.08;78.41;96634.19;6296189;28;20048;-67
2023/10/21 05:04:35;;;;;;;4.90;2.95;;;;;;;3.95;78.79;96628.66;6297339;28;20496;-67
2023/10/21 05:07:39;;;;;;;3.13;2.45;;;;;;;4.03;78.75;96635.25;6297102;28;20531;-67
2023/10/21 05:10:46;;;;;;;3.88;2.40;;;;;;;3.97;78.99;96632.06;6297046;28;20047;-67
2023/10/21 05:13:49;;;;;;;1.80;1.60;;;;;;;3.98;79.11;96629.38;6296568;28;20051;-66
2023/10/21 05:16:53;;;;;;;1.77;1.50;;;;;;;4.16;77.96;96627.75;6296769;28;20487;-68
2023/10/21 05:19:55;;;;;;;3.65;2.70;;;;;;;4.07;78.53;96606.47;6296023;28;20044;-67
2023/10/21 05:22:58;;;;;;;2.10;1.67;;;;;;;4.07;78.48;96616.88;6296346;28;20043;-67
2023/10/21 05:26:00;;;;;;;1.95;1.33;;;;;;;4.05;78.28;96602.19;6295823;28;20519;-67
2023/10/21 05:29:01;;;;;;;2.55;1.67;;;;;;;4.17;78.50;96594.75;6278224;28;20530;-68
2023/10/21 05:32:03;;;;;;;2.80;1.88;;;;;;;4.23;78.36;96591.88;6295152;28;20057;-68
2023/10/21 05:35:07;;;;;;;2.50;1.80;;;;;;;4.27;78.37;96590.81;6296225;28;20044;-67
2023/10/21 05:38:11;;;;;;;2.40;2.20;;;;;;;4.37;78.97;96578.25;6295294;28;20504;-67
2023/10/21 05:41:12;;;;;;;;;;;;;;;4.46;79.09;96573.44;6296041;28;20059;-67
2023/10/21 05:44:14;;;;;;;3.03;1.95;;;;;;;4.59;79.00;96568.53;6295018;28;19916;-69
2023/10/21 05:47:15;;;;;;;2.13;1.40;;;;;;;4.71;78.02;96567.97;6295325;28;20179;-68
2023/10/21 05:50:19;;;;;;;2.05;1.60;;;;;;;4.65;78.07;96554.38;6294151;28;20048;-68
2023/10/21 05:53:26;;;;;;;2.45;1.80;;;;;;;4.69;77.78;96564.56;6295636;28;20064;-68
2023/10/21 05:56:30;;;;;;;2.88;1.92;;;;;;;4.71;77.39;96554.91;6277439;28;20093;-68
2023/10/21 05:59:37;;;;;;;2.03;1.75;;;;;;;4.65;77.36;96551.78;6295539;28;20041;-67
2023/10/21 06:02:45;;;;;;;1.48;0.95;;;;;;;4.70;77.49;96544.59;6295468;28;20048;-67
2023/10/21 06:05:49;;;;;;;1.30;1.20;;;;;;;4.63;76.90;96543.16;6294328;28;20063;-68
2023/10/21 06:08:53;;;;;;;2.55;1.48;;;;;;;4.66;77.53;96532.59;6295499;28;20040;-67
2023/10/21 06:11:59;;;;;;;2.45;1.75;;;;;;;4.66;77.57;96543.03;6294250;28;20543;-66
2023/10/21 06:15:02;;;;;;;1.80;1.52;;;;;;;4.57;77.81;96528.66;6294668;28;20147;-68
2023/10/21 06:18:07;;;;;;;1.73;1.38;;;;;;;4.66;77.65;96511.75;6294607;28;20185;-67
2023/10/21 06:21:09;;;;;;;1.23;1.20;;;;;;;4.78;77.47;96505.94;6294845;28;20055;-68
2023/10/21 06:24:10;;;;;;;2.70;1.90;;;;;;;4.64;78.16;96493.59;6277288;28;20639;-68
2023/10/21 06:27:16;;;;;;;1.73;1.45;;;;;;;4.67;78.52;96498.66;6293519;28;20056;-68
2023/10/21 06:30:18;;;;;;;1.10;0.80;;;;;;;4.88;78.54;96486.34;6294213;28;20040;-69
2023/10/21 06:33:21;;;;;;;1.20;1.10;;;;;;;4.82;78.38;96484.03;6294205;28;20638;-69
2023/10/21 06:36:25;;;;;;;2.45;1.25;;;;;;;4.92;78.13;96492.25;6294487;28;20052;-69
2023/10/21 06:39:26;;;;;;;1.10;0.98;;;;;;;4.92;78.38;96472.22;6294382;28;20047;-68
2023/10/21 06:42:30;;;;;;;2.05;1.85;;;;;;;5.14;78.12;96465.97;6275640;28;20051;-68
2023/10/21 06:45:36;;;;;;;1.30;0.90;;;;;;;5.21;78.09;96454.34;6294638;28;20174;-69
2023/10/21 06:48:43;;;;;;;1.15;1.05;;;;;;;5.32;78.10;96465.06;6294575;28;20055;-69
2023/10/21 06:51:50;;;;;;;1.05;0.93;;;;;;;5.20;78.69;96457.84;6294508;28;20419;-68
2023/10/21 06:54:53;;;;;;;1.75;1.10;;;;;;;5.26;78.80;96454.91;6294020;28;20055;-69
2023/10/21 06:57:59;;;;;;;3.53;2.10;;;;;;;5.29;78.74;96444.31;6293606;28;20496;-69
2023/10/21 07:01:04;;;;;;;1.63;1.00;;;;;;;5.26;79.32;96428.84;6293505;28;20050;-69
2023/10/21 07:04:06;;;;;;;0.80;0.80;;;;;;;5.36;78.83;96435.28;6275651;28;20558;-68
2023/10/21 07:07:13;;;;;;;0.88;0.77;;;;;;;5.31;79.55;96426.84;6294277;28;20048;-69
2023/10/21 07:10:17;;;;;;;0.93;0.75;;;;;;;5.46;78.73;96430.41;6276482;28;20045;-68
2023/10/21 07:13:25;;;;;;;1.13;0.90;;;;;;;5.52;78.87;96421.44;6294038;28;20052;-68
2023/10/21 07:16:32;;;;;;;1.33;0.80;;;;;;;5.43;78.83;96416.69;6294098;28;20040;-68
2023/10/21 07:19:33;;;;;;;2.03;1.35;;;;;;;5.53;78.98;96420.53;6276795;28;20040;-69
2023/10/21 07:22:41;;;;;;;1.25;0.90;;;;;;;5.55;79.00;96414.31;6275560;28;20053;-68
2023/10/21 07:25:43;;;;;;;5.68;3.67;;;;;;;5.58;79.38;96408.09;6292800;28;20052;-69
2023/10/21 07:28:44;;;;;;;1.55;0.90;;;;;;;5.69;78.73;96404.88;6292631;28;20418;-69
2023/10/21 07:31:48;;;;;;;1.58;0.70;;;;;;;5.69;79.01;96395.31;6293793;28;20045;-69
2023/10/21 07:34:54;;;;;;;1.58;1.13;;;;;;;5.63;79.21;96382.56;6293792;28;20044;-68
2023/10/21 07:37:57;;;;;;;1.38;1.00;;;;;;;5.65;79.22;96388.56;6276292;28;20048;-68
2023/10/21 07:41:11;;;;;;;1.40;0.93;;;;;;;5.77;79.45;96377.44;6298027;28;20044;-68
2023/10/21 07:44:15;;;;;;;1.30;1.20;;;;;;;5.80;78.82;96368.59;6298736;28;20043;-67
2023/10/21 07:47:20;;;;;;;1.70;1.27;;;;;;;5.73;79.62;96367.28;6298760;28;20052;-69
2023/10/21 07:50:23;;;;;;;1.77;1.48;;;;;;;5.86;79.64;96363.09;6298419;28;20043;-69
2023/10/21 07:53:30;;;;;;;2.20;1.30;;;;;;;5.78;80.03;96357.44;6271157;28;20071;-69
2023/10/21 07:56:32;;;;;;;1.58;1.20;;;;;;;5.76;79.95;96357.50;6273149;28;20041;-69
2023/10/21 07:59:34;;;;;;;0.98;0.65;;;;;;;5.96;79.41;96350.38;6273011;28;20520;-69
2023/10/21 08:02:38;;;;;;;0.70;0.50;;;;;;;6.04;78.96;96337.75;6273718;28;20045;-68
2023/10/21 08:05:45;;;;;;;1.33;1.15;;;;;;;6.05;79.31;96335.03;6255885;28;20044;-68
2023/10/21 08:08:52;;;;;;;1.38;1.08;;;;;;;5.99;79.47;96324.09;6255072;28;20524;-69
2023/10/21 08:11:59;;;;;;;2.92;0.60;;;;;;;6.20;79.14;96329.88;6273545;28;20044;-68
2023/10/21 08:15:09;;;;;;;1.10;0.77;;;;;;;6.25;78.77;96315.63;6273450;28;20037;-68
2023/10/21 08:18:14;;;;;;;1.30;1.02;;;;;;;6.06;79.27;96309.78;6273454;28;20044;-68
2023/10/21 08:21:18;;;;;;;0.80;0.70;;;;;;;6.20;78.83;96301.16;6271793;28;20130;-68
2023/10/21 08:24:22;;;;;;;2.63;0.80;;;;;;;5.99;79.34;96303.22;6272968;28;20543;-68
2023/10/21 08:27:27;;;;;;;1.45;0.93;;;;;;;6.19;79.26;96299.47;6271996;28;20057;-68
2023/10/21 08:30:30;;;;;;;7.95;4.57;;;;;;;6.34;79.29;96311.69;6272225;28;20420;-67
2023/10/21 08:33:34;;;;;;;1.00;0.73;;;;;;;6.39;78.18;96293.13;6272904;28;20056;-68
2023/10/21 08:36:42;;;;;;;2.75;1.38;;;;;;;6.37;78.88;96290.59;6272826;28;20043;-68
2023/10/21 08:39:48;;;;;;;4.78;2.22;;;;;;;6.26;79.08;96280.75;6272638;28;20045;-68
2023/10/21 08:42:52;;;;;;;2.45;1.65;;;;;;;6.36;77.74;96273.22;6272724;28;20048;-68
2023/10/21 08:45:56;;;;;;;0.38;0.38;;;;;;;6.44;77.26;96264.94;6271937;28;20040;-68
2023/10/21 08:49:05;;;;;;;0.43;0.22;;;;;;;6.32;77.16;96269.13;6271127;28;20147;-68
2023/10/21 08:52:12;;;;;;;0.57;0.40;;;;;;;6.21;77.71;96251.44;6271552;28;20567;-67
2023/10/21 08:55:24;;;;;;;0.30;0.30;;;;;;;6.17;78.20;96255.19;6254218;28;20127;-70
2023/10/21 08:58:28;;;;;;;1.38;0.55;;;;;;;6.28;76.76;96254.53;6271568;28;20049;-69
2023/10/21 09:01:37;;;;;;;1.65;0.85;;;;;;;6.15;76.40;96246.56;6271823;28;20522;-68
2023/10/21 09:04:44;;;;;;;0.15;0.10;;;;;;;6.14;75.68;96249.25;6272169;28;20040;-69
2023/10/21 09:07:51;;;;;;;0.30;0.30;;;;;;;5.94;74.25;96263.44;6272347;28;20060;-68
2023/10/21 09:11:10;;;;;;;1.63;0.50;;;;;;;5.80;74.17;96241.56;6272217;28;20484;-67
2023/10/21 09:14:18;;;;;;;0.70;0.43;;;;;;;5.61;73.26;96246.94;6271947;28;20461;-67
2023/10/21 09:17:34;;;;;;;0.40;0.38;;;;;;;5.62;73.38;96242.56;6271780;28;20445;-68
2023/10/21 09:20:38;;;;;;;1.02;0.63;;;;;;;5.69;72.24;96249.13;6271677;28;20052;-67
2023/10/21 09:23:51;;;;;;;0.35;0.35;;;;;;;5.68;71.87;96239.59;6254508;28;20045;-67
2023/10/21 09:26:53;;;;;;;0.90;0.65;;;;;;;5.69;72.09;96248.28;6270824;28;20126;-66
2023/10/21 09:29:57;;;;;;;1.13;0.60;;;;;;;5.66;72.52;96243.22;6271738;28;20041;-68
2023/10/21 09:33:10;;;;;;;1.20;0.80;;;;;;;5.75;71.40;96230.53;6252476;28;20523;-68
2023/10/21 09:36:15;;;;;;;0.88;0.45;;;;;;;5.74;69.93;96241.88;6270597;28;20049;-67
2023/10/21 09:39:19;;;;;;;0.70;0.70;;;;;;;5.77;69.72;96249.53;6271239;28;20056;-68
2023/10/21 09:42:24;;;;;;;0.40;0.40;;;;;;;5.81;69.17;96261.50;6271565;28;20045;-68
2023/10/21 09:45:29;;;;;;;0.53;0.53;;;;;;;5.67;69.32;96240.53;6270570;28;20049;-67
2023/10/21 09:48:43;;;;;;;2.55;1.15;;;;;;;5.65;69.67;96242.38;6270144;28;20061;-68
2023/10/21 09:52:00;;;;;;;0.65;0.57;;;;;;;5.85;67.68;96241.28;6270729;28;20449;-67
2023/10/21 09:55:11;;;;;;;1.08;0.90;;;;;;;5.72;68.02;96243.75;6293961;28;20060;-67
2023/10/21 09:58:16;;;;;;;1.88;1.10;;;;;;;5.68;67.35;96223.94;6295571;28;20040;-67
2023/10/21 10:01:23;;;;;;;1.40;1.10;;;;;;;5.65;67.66;96228.50;6276025;28;20044;-68
2023/10/21 10:04:27;;;;;;;1.60;1.17;;;;;;;5.50;68.62;96219.75;6294607;28;20055;-67
2023/10/21 10:07:32;;;;;;;2.15;0.95;;;;;;;5.46;69.25;96231.28;6295376;28;20086;-67
2023/10/21 10:10:38;;;;;;;1.73;1.10;;;;;;;5.29;69.82;96233.03;6277190;28;20621;-66
2023/10/21 10:13:46;;;;;;;1.13;0.82;;;;;;;5.21;70.29;96218.72;6295577;28;20040;-67
2023/10/21 10:16:51;;;;;;;1.17;1.00;;;;;;;5.05;71.50;96210.91;6295278;28;20499;-68
2023/10/21 10:19:57;;;;;;;2.30;1.23;;;;;;;4.97;72.09;96202.63;6277557;28;20049;-67
2023/10/21 10:22:59;;;;;;;1.65;1.02;;;;;;;4.95;71.80;96195.75;6295266;28;20131;-67
2023/10/21 10:26:08;;;;;;;0.73;0.73;;;;;;;4.94;71.86;96201.03;6295052;28;20045;-67
2023/10/21 10:29:25;;;;;;;1.48;1.30;;;;;;;4.77;72.90;96185.44;6293494;28;20643;-67
2023/10/21 10:32:31;;;;;;;1.63;1.13;;;;;;;4.67;73.00;96175.53;6294044;28;20048;-68
2023/10/21 10:35:37;;;;;;;1.52;1.42;;;;;;;4.60;73.68;96173.31;6294828;28;20056;-68
2023/10/21 10:38:47;;;;;;;3.50;2.13;;;;;;;4.48;74.78;96172.19;6294323;28;20044;-68
2023/10/21 10:41:53;;;;;;;3.03;1.88;;;;;;;4.41;75.71;96158.63;6294782;28;20044;-67
2023/10/21 10:44:57;;;;;;;4.80;3.05;;;;;;;4.23;76.03;96150.00;6294776;28;20040;-68
2023/10/21 10:48:07;;;;;;;2.75;2.20;;;;;;;4.24;76.97;96161.25;6294504;28;20113;-68
2023/10/21 10:51:19;;;;;;;2.15;1.48;;;;;;;4.22;77.26;96152.69;6276980;28;20047;-69
2023/10/21 10:54:25;;;;;;;2.30;2.00;;;;;;;4.20;77.60;96149.31;6294210;28;20147;-69
2023/10/21 10:57:28;;;;;;;5.63;3.13;;;;;;;4.25;77.71;96144.72;6293369;28;20056;-68
2023/10/21 11:00:32;;;;;;;2.33;1.57;;;;;;;4.36;77.71;96129.38;6293812;28;20044;-67
2023/10/21 11:03:38;;;;;;;5.43;2.65;;;;;;;4.18;78.29;96128.56;6293575;28;20049;-68
2023/10/21 11:06:45;;;;;;;2.65;2.15;;;;;;;4.14;78.64;96123.59;6293876;28;20048;-68
2023/10/21 11:10:08;;;;;;;3.58;2.45;;;;;;;4.29;78.64;96117.59;6294133;28;20083;-67
2023/10/21 11:13:11;;;;;;;3.83;2.45;;;;;;;4.11;79.22;96101.16;6293850;28;20040;-67
2023/10/21 11:16:15;;;;;;;5.50;2.95;;;;;;;4.18;79.20;96110.31;6294227;28;20488;-65
2023/10/21 11:19:19;;;;;;;3.05;2.00;;;;;;;4.18;78.87;96099.06;6293920;28;20041;-65
2023/10/21 11:22:26;;;;;;;2.08;1.63;;;;;;;4.13;79.46;96086.28;6294139;28;20040;-65
2023/10/21 11:25:30;;;;;;;4.75;2.60;;;;;;;3.96;80.25;96084.56;6293888;28;20044;-66
2023/10/21 11:28:32;;;;;;;2.95;2.00;;;;;;;3.95;80.03;96072.47;6293230;28;20149;-66
2023/10/21 11:31:36;;;;;;;2.97;2.47;;;;;;;3.91;80.21;96076.16;6293810;28;20546;-66
2023/10/21 11:34:48;;;;;;;5.05;3.20;;;;;;;3.97;80.28;96081.03;6293820;28;20048;-65
2023/10/21 11:37:55;;;;;;;4.50;2.92;;;;;;;3.82;80.89;96066.19;6293850;28;20040;-65
2023/10/21 11:40:56;;;;;;;8.13;1.98;;;;;;;3.91;80.86;96075.31;6293779;28;20381;-65
2023/10/21 11:43:57;;;;;;;2.72;1.73;;;;;;;3.88;80.12;96039.88;6293591;28;20062;-65
2023/10/21 11:47:04;;;;;;;4.90;3.05;;;;;;;3.73;80.72;96035.44;6293699;28;20528;-65
2023/10/21 11:50:09;;;;;;;2.08;1.30;;;;;;;3.77;81.27;96042.19;6275399;28;20106;-66
2023/10/21 11:53:13;;;;;;;2.40;1.88;;;;;;;3.63;81.60;96034.25;6293083;28;20052;-66
2023/10/21 12:19:45;;;;;;;6.88;3.75;;;;;;;3.62;82.99;95980.53;6293253;28;20033;-65
2023/10/21 12:27:42;;;;;;;4.82;2.83;;;;;;;3.64;83.28;95963.09;6180415;28;20066;-66
2023/10/21 12:43:24;;;;;;;1.90;1.65;;;;;;;3.34;82.23;95935.13;6297214;28;20060;-65
2023/10/21 12:46:30;;;;;;;1.67;1.58;;;;;;;3.20;82.84;95934.97;6297581;28;20576;-66
2023/10/21 12:49:35;;;;;;;1.83;1.63;;;;;;;3.18;82.54;95929.88;6296466;28;20140;-67
2023/10/21 12:52:39;;;;;;;2.00;1.25;;;;;;;3.00;83.23;95936.84;6297161;28;20539;-66
2023/10/21 12:55:46;;;;;;;1.83;1.58;;;;;;;2.91;82.93;95922.53;6297525;28;20048;-65
2023/10/21 12:58:47;;;;;;;1.98;1.52;;;;;;;2.66;83.56;95928.13;6297162;28;20586;-66
2023/10/21 13:01:51;;;;;;;1.35;1.25;;;;;;;2.57;83.53;95918.16;6297188;28;20437;-66
2023/10/21 13:05:03;;;;;;;1.60;1.40;;;;;;;2.42;84.15;95913.72;6296967;28;20048;-65
2023/10/21 13:08:09;;;;;;;;;;;;;;;2.54;83.76;95917.47;6297338;28;20506;-65
2023/10/21 13:11:14;;;;;;;0.68;0.68;;;;;;;2.52;83.12;95898.50;6297265;28;20380;-66
2023/10/21 13:14:21;;;;;;;1.83;1.15;;;;;;;2.29;83.14;95881.47;6296200;28;20569;-66
2023/10/21 13:17:25;;;;;;;0.82;0.80;;;;;;;2.13;83.90;95894.34;6296073;28;20129;-66
2023/10/21 13:20:27;;;;;;;;;;;;;;;2.08;83.95;95878.97;6296246;28;20098;-65
2023/10/21 13:23:31;;;;;;;1.23;1.13;;;;;;;1.99;83.96;95879.41;6278124;28;19967;-66
2023/10/21 13:26:32;;;;;;;;;;;;;;;1.93;83.38;95864.16;6295771;28;20041;-66
2023/10/21 13:29:36;;;;;;;1.42;1.00;;;;;;;1.89;84.21;95854.81;6295732;28;19920;-66
2023/10/21 13:32:41;;;;;;;1.77;1.17;;;;;;;1.79;84.19;95841.44;6295116;28;20520;-67
2023/10/21 13:35:42;;;;;;;0.75;0.75;;;;;;;1.77;84.65;95836.31;6296486;28;20044;-66
2023/10/21 13:38:48;;;;;;;2.58;1.05;;;;;;;1.67;84.57;95837.66;6295991;28;20048;-66
2023/10/21 13:41:52;;;;;;;2.55;1.60;;;;;;;1.62;84.79;95847.41;6296079;28;20049;-66
2023/10/21 13:44:56;;;;;;;1.52;1.20;;;;;;;1.47;84.58;95829.94;6295916;28;20044;-67
2023/10/21 13:48:05;;;;;;;1.13;0.65;;;;;;;1.54;84.54;95831.34;6295414;28;20052;-66
2023/10/21 13:51:09;;;;;;;4.47;1.88;;;;;;;1.37;84.52;95820.91;6295397;28;20052;-65
2023/10/21 13:54:13;;;;;;;9.52;3.33;;;;;;;1.22;84.51;95822.44;6295977;28;20500;-65
2023/10/21 13:57:17;;;;;;;3.40;1.48;;;;;;;1.21;84.70;95815.56;6295474;28;20504;-65
2023/10/21 14:03:39;;;;;;;1.42;0.95;;;;;;;1.18;84.84;95798.41;6295500;28;20041;-65
2023/10/21 14:06:43;;;;;;;1.10;0.47;;;;;;;1.19;84.91;95805.28;6295116;28;20435;-65
2023/10/21 14:09:47;;;;;;;0.50;0.50;;;;;;;1.11;84.28;95791.84;6295392;28;20056;-66
2023/10/21 14:12:54;;;;;;;1.27;0.52;;;;;;;1.16;84.31;95787.31;6295443;28;20048;-65
2023/10/21 14:16:11;;;;;;;1.65;0.65;;;;;;;1.10;84.30;95779.78;6294480;28;20639;-66
2023/10/21 14:19:16;;;;;;;3.15;0.98;;;;;;;1.04;84.56;95759.34;6294594;28;20053;-66
2023/10/21 14:22:18;;;;;;;1.63;0.82;;;;;;;1.09;84.60;95762.56;6294342;28;20052;-66
2023/10/21 14:25:20;;;;;;;0.40;0.40;;;;;;;1.00;84.34;95753.47;6293852;28;20190;-65
2023/10/21 14:28:26;;;;;;;1.05;0.45;;;;;;;0.98;85.34;95759.63;6294368;28;20139;-65
2023/10/21 14:31:31;;;;;;;0.30;0.30;;;;;;;0.96;85.70;95748.47;6294491;28;20423;-65
2023/10/21 14:34:32;;;;;;;0.32;0.30;;;;;;;1.17;84.99;95742.34;6293676;28;20051;-66
2023/10/21 14:37:37;;;;;;;;;;;;;;;1.14;85.18;95729.53;6293984;28;20063;-65
2023/10/21 14:40:40;;;;;;;0.55;0.40;;;;;;;1.09;85.00;95715.94;6294016;28;19935;-64
2023/10/21 14:43:44;;;;;;;0.55;0.32;;;;;;;1.10;84.63;95707.25;6294663;28;20040;-65
2023/10/21 14:46:52;;;;;;;0.30;0.30;;;;;;;1.08;84.80;95709.09;6294179;28;20045;-65
2023/10/21 14:49:53;;;;;;;0.40;0.40;;;;;;;1.12;84.96;95705.41;6293545;28;20143;-65
2023/10/21 14:52:57;;;;;;;0.38;0.32;;;;;;;1.02;85.06;95688.63;6293116;28;20049;-66
2023/10/21 14:56:02;;;;;;;0.25;0.25;;;;;;;1.00;85.09;95690.47;6294417;28;20052;-66
2023/10/21 14:59:05;;;;;;;0.40;0.40;;;;;;;0.95;85.62;95666.50;6293422;28;20047;-64
2023/10/21 15:02:10;;;;;;;0.52;0.43;;;;;;;0.94;85.74;95670.03;6293254;28;20052;-65
2023/10/21 15:05:13;;;;;;;0.77;0.50;;;;;;;0.94;85.50;95659.66;6293869;28;20044;-65
2023/10/21 15:08:20;;;;;;;0.50;0.50;;;;;;;0.97;85.98;95649.16;6293633;28;20068;-64
2023/10/21 15:11:22;;;;;;;0.20;0.20;;;;;;;0.94;85.99;95646.72;6276194;28;20530;-65
2023/10/21 15:14:26;;;;;;;0.82;0.55;;;;;;;0.96;85.93;95647.47;6293097;28;20052;-64
2023/10/21 15:17:27;;;;;;;0.30;0.30;;;;;;;1.06;85.61;95638.34;6293096;28;20041;-65
2023/10/21 15:20:33;;;;;;;1.30;0.50;;;;;;;1.00;85.64;95633.47;6293974;28;20041;-65
2023/10/21 15:23:38;;;;;;;0.40;0.40;;;;;;;0.93;85.81;95621.72;6293325;28;20051;-66
2023/10/21 15:26:44;;;;;;;0.30;0.30;;;;;;;0.88;86.57;95625.38;6275423;28;20105;-66